createdAt,value
2019-01-02T00:02:13.739Z,102030.88
2019-01-02T00:05:17.619Z,102031.70
2019-01-02T00:08:21.437Z,102037.00
2019-01-02T00:11:25.228Z,102047.53
2019-01-02T00:14:29.230Z,102043.62
2019-01-02T00:17:33.201Z,102048.42
2019-01-02T00:20:37.329Z,102053.63
2019-01-02T00:23:41.421Z,102050.13
2019-01-02T00:26:45.293Z,102052.30
2019-01-02T00:29:49.111Z,102062.41
2019-01-02T00:32:52.935Z,102063.28
2019-01-02T00:35:56.775Z,102080.38
2019-01-02T00:39:00.558Z,102092.56
2019-01-02T00:42:04.486Z,102092.27
2019-01-02T00:45:09.154Z,102100.61
2019-01-02T00:48:13.431Z,102103.69
2019-01-02T00:51:17.597Z,102110.16
2019-01-02T00:54:21.419Z,102113.23
2019-01-02T00:57:25.230Z,102103.49
2019-01-02T01:00:30.925Z,102113.20
2019-01-02T01:03:34.801Z,102115.83
2019-01-02T01:06:39.081Z,102121.25
2019-01-02T01:09:43.311Z,102126.89
2019-01-02T01:12:47.195Z,102137.45
2019-01-02T01:15:50.999Z,102158.51
2019-01-02T01:18:54.799Z,102158.87
2019-01-02T01:21:58.641Z,102156.70
2019-01-02T01:25:02.503Z,102173.31
2019-01-02T01:28:06.317Z,102178.03
2019-01-02T01:31:10.143Z,102181.98
2019-01-02T01:34:13.970Z,102188.92
2019-01-02T01:37:17.853Z,102193.77
2019-01-02T01:40:21.755Z,102190.59
2019-01-02T01:43:25.630Z,102194.68
2019-01-02T01:46:29.437Z,102201.58
2019-01-02T01:49:33.316Z,102213.91
2019-01-02T01:52:37.130Z,102219.80
2019-01-02T01:55:40.966Z,102219.67
2019-01-02T01:58:44.766Z,102234.15
2019-01-02T02:01:48.646Z,102235.14
2019-01-02T02:04:52.568Z,102245.62
2019-01-02T02:07:56.382Z,102246.45
2019-01-02T02:11:00.188Z,102256.45
2019-01-02T02:14:04.067Z,102267.49
2019-01-02T02:17:07.904Z,102270.72
2019-01-02T02:20:13.383Z,102272.76
2019-01-02T02:23:17.190Z,102284.45
2019-01-02T02:26:21.137Z,102285.45
2019-01-02T02:29:25.224Z,102286.77
2019-01-02T02:32:29.320Z,102287.98
2019-01-02T02:35:33.212Z,102295.42
2019-01-02T02:38:37.486Z,102297.05
2019-01-02T02:41:41.664Z,102293.30
2019-01-02T02:44:45.928Z,102299.88
2019-01-02T02:47:49.872Z,102309.89
2019-01-02T02:50:54.059Z,102314.70
2019-01-02T02:53:58.124Z,102312.42
2019-01-02T02:57:02.112Z,102327.05
2019-01-02T03:00:10.158Z,102324.56
2019-01-02T03:03:13.970Z,102321.42
2019-01-02T03:06:17.810Z,102330.28
2019-01-02T03:09:21.611Z,102321.93
2019-01-02T03:12:25.459Z,102323.25
2019-01-02T03:15:29.327Z,102326.53
2019-01-02T03:18:33.125Z,102337.32
2019-01-02T03:21:37.327Z,102342.52
2019-01-02T03:24:41.490Z,102341.77
2019-01-02T03:27:45.531Z,102344.28
2019-01-02T03:30:49.702Z,102341.21
2019-01-02T03:33:53.810Z,102342.88
2019-01-02T03:36:57.620Z,102351.02
2019-01-02T03:40:01.432Z,102364.84
2019-01-02T03:43:05.219Z,102357.12
2019-01-02T03:46:09.126Z,102363.19
2019-01-02T03:49:12.927Z,102371.08
2019-01-02T03:52:16.731Z,102376.69
2019-01-02T03:55:20.592Z,102387.53
2019-01-02T03:58:24.459Z,102391.13
2019-01-02T04:01:28.252Z,102400.34
2019-01-02T04:04:32.081Z,102410.84
2019-01-02T04:07:35.915Z,102419.59
2019-01-02T04:10:39.798Z,102424.05
2019-01-02T04:13:43.650Z,102435.81
2019-01-02T04:16:47.446Z,102431.04
2019-01-02T04:19:51.338Z,102429.67
2019-01-02T04:22:55.145Z,102440.91
2019-01-02T04:25:59.058Z,102450.12
2019-01-02T04:29:02.946Z,102457.71
2019-01-02T04:32:06.766Z,102468.12
2019-01-02T04:35:10.601Z,102473.28
2019-01-02T04:38:14.425Z,102478.81
2019-01-02T04:41:18.219Z,102490.23
2019-01-02T04:44:22.018Z,102487.36
2019-01-02T04:47:25.894Z,102497.48
2019-01-02T04:50:29.711Z,102510.62
2019-01-02T04:53:33.667Z,102508.16
2019-01-02T04:56:37.503Z,102509.80
2019-01-02T04:59:41.373Z,102510.08
2019-01-02T05:02:45.271Z,102517.34
2019-01-02T05:05:49.112Z,102526.28
2019-01-02T05:08:52.917Z,102524.53
2019-01-02T05:11:56.711Z,102534.95
2019-01-02T05:15:00.522Z,102540.36
2019-01-02T05:18:04.523Z,102545.55
2019-01-02T05:21:08.302Z,102549.80
2019-01-02T05:24:12.104Z,102553.81
2019-01-02T05:27:15.991Z,102561.07
2019-01-02T05:30:20.238Z,102569.49
2019-01-02T05:33:24.148Z,102578.55
2019-01-02T05:36:27.967Z,102583.97
2019-01-02T05:39:31.845Z,102593.63
2019-01-02T05:42:35.658Z,102601.56
2019-01-02T05:45:39.458Z,102603.83
2019-01-02T05:48:43.251Z,102600.52
2019-01-02T05:51:47.071Z,102603.78
2019-01-02T05:54:50.859Z,102612.58
2019-01-02T05:57:54.721Z,102624.98
2019-01-02T06:00:58.597Z,102634.58
2019-01-02T06:04:02.421Z,102646.38
2019-01-02T06:07:06.296Z,102648.17
2019-01-02T06:10:12.767Z,102651.80
2019-01-02T06:13:16.564Z,102665.15
2019-01-02T06:16:20.353Z,102653.19
2019-01-02T06:19:24.254Z,102676.16
2019-01-02T06:22:28.148Z,102688.37
2019-01-02T06:25:31.943Z,102685.59
2019-01-02T06:28:35.768Z,102695.84
2019-01-02T06:31:39.561Z,102710.41
2019-01-02T06:34:43.363Z,102715.23
2019-01-02T06:37:47.164Z,102722.71
2019-01-02T06:40:50.948Z,102726.02
2019-01-02T06:43:54.741Z,102734.27
2019-01-02T06:46:58.534Z,102738.30
2019-01-02T06:50:02.415Z,102747.72
2019-01-02T06:53:06.269Z,102751.89
2019-01-02T06:56:10.105Z,102757.47
2019-01-02T06:59:13.904Z,102760.94
2019-01-02T07:02:17.725Z,102766.97
2019-01-02T07:05:21.519Z,102782.70
2019-01-02T07:08:25.343Z,102782.36
2019-01-02T07:11:29.197Z,102784.62
2019-01-02T07:14:32.999Z,102794.38
2019-01-02T07:17:36.823Z,102802.98
2019-01-02T07:20:40.622Z,102810.69
2019-01-02T07:23:44.419Z,102813.71
2019-01-02T07:26:48.373Z,102832.64
2019-01-02T07:29:52.184Z,102837.31
2019-01-02T07:32:55.981Z,102840.05
2019-01-02T07:36:42.703Z,102845.25
2019-01-02T07:40:34.244Z,102860.80
2019-01-02T07:44:25.043Z,102860.99
2019-01-02T07:48:05.255Z,102862.97
2019-01-02T07:51:49.976Z,102869.05
2019-01-02T07:55:20.074Z,102871.94
2019-01-02T07:58:56.064Z,102892.30
2019-01-02T08:02:54.019Z,102895.07
2019-01-02T08:06:45.569Z,102910.55
2019-01-02T08:10:37.867Z,102900.89
2019-01-02T08:14:16.075Z,102917.36
2019-01-02T08:17:39.305Z,102919.62
2019-01-02T08:21:58.070Z,102927.78
2019-01-02T08:25:50.785Z,102933.43
2019-01-02T08:29:48.001Z,102935.76
2019-01-02T08:33:37.559Z,102955.50
2019-01-02T08:37:16.656Z,102949.89
2019-01-02T08:40:50.748Z,102959.00
2019-01-02T08:44:20.305Z,102971.71
2019-01-02T08:47:47.596Z,102971.20
2019-01-02T08:51:21.028Z,102987.30
2019-01-02T08:55:01.840Z,102986.72
2019-01-02T08:58:37.217Z,103001.36
2019-01-02T09:02:24.794Z,103006.72
2019-01-02T09:05:47.566Z,103008.86
2019-01-02T09:09:38.849Z,103009.16
2019-01-02T09:13:42.288Z,103020.09
2019-01-02T09:17:25.062Z,103022.09
2019-01-02T09:20:51.655Z,103034.62
2019-01-02T09:24:38.596Z,103049.28
2019-01-02T09:28:11.508Z,103047.81
2019-01-02T09:31:48.544Z,103048.77
2019-01-02T09:35:36.733Z,103048.42
2019-01-02T09:39:20.907Z,103050.42
2019-01-02T09:42:56.952Z,103058.04
2019-01-02T09:46:54.282Z,103064.94
2019-01-02T09:50:23.516Z,103071.81
2019-01-02T09:53:55.965Z,103074.56
2019-01-02T09:57:35.970Z,103073.72
2019-01-02T10:01:11.584Z,103079.22
2019-01-02T10:04:59.704Z,103080.13
2019-01-02T10:08:29.646Z,103092.06
2019-01-02T10:12:14.843Z,103094.89
2019-01-02T10:16:05.463Z,103104.11
2019-01-02T10:19:44.354Z,103100.75
2019-01-02T10:23:21.249Z,103098.80
2019-01-02T10:27:01.287Z,103100.02
2019-01-02T10:30:38.050Z,103096.27
2019-01-02T10:34:31.051Z,103109.74
2019-01-02T10:38:11.416Z,103103.92
2019-01-02T10:41:48.338Z,103112.00
2019-01-02T10:45:39.309Z,103115.20
2019-01-02T10:49:26.232Z,103115.77
2019-01-02T10:52:57.583Z,103119.78
2019-01-02T10:56:30.820Z,103116.52
2019-01-02T10:59:51.022Z,103129.36
2019-01-02T11:03:30.817Z,103133.94
2019-01-02T11:07:10.756Z,103138.59
2019-01-02T11:10:44.873Z,103138.09
2019-01-02T11:14:29.830Z,103154.53
2019-01-02T11:18:05.520Z,103150.97
2019-01-02T11:22:05.572Z,103152.81
2019-01-02T11:25:39.606Z,103159.05
2019-01-02T11:29:05.941Z,103157.91
2019-01-02T11:32:36.717Z,103155.03
2019-01-02T11:36:15.076Z,103159.79
2019-01-02T11:40:06.837Z,103162.55
2019-01-02T11:43:46.839Z,103155.50
2019-01-02T11:46:50.649Z,103169.80
2019-01-02T11:49:54.459Z,103179.78
2019-01-02T11:52:58.298Z,103177.02
2019-01-02T11:56:02.097Z,103180.69
2019-01-02T11:59:05.933Z,103185.88
2019-01-02T12:02:09.726Z,103185.20
2019-01-02T12:05:13.802Z,103187.83
2019-01-02T12:08:17.604Z,103189.10
2019-01-02T12:11:21.505Z,103190.38
2019-01-02T12:14:25.376Z,103190.77
2019-01-02T12:17:29.188Z,103190.63
2019-01-02T12:20:33.080Z,103194.04
2019-01-02T12:23:36.943Z,103196.95
2019-01-02T12:26:41.166Z,103199.00
2019-01-02T12:29:45.140Z,103199.77
2019-01-02T12:32:48.939Z,103189.72
2019-01-02T12:35:52.780Z,103192.25
2019-01-02T12:38:56.615Z,103192.48
2019-01-02T12:42:00.442Z,103190.80
2019-01-02T12:45:04.483Z,103193.42
2019-01-02T12:48:08.330Z,103198.33
2019-01-02T12:51:12.144Z,103205.57
2019-01-02T12:54:15.982Z,103203.86
2019-01-02T12:57:19.837Z,103207.52
2019-01-02T13:00:23.734Z,103207.67
2019-01-02T13:04:04.773Z,103201.09
2019-01-02T13:07:44.671Z,103203.58
2019-01-02T13:11:18.567Z,103212.30
2019-01-02T13:14:50.633Z,103210.91
2019-01-02T13:18:27.584Z,103210.72
2019-01-02T13:22:23.759Z,103216.69
2019-01-02T13:25:52.179Z,103220.41
2019-01-02T13:29:07.207Z,103228.48
2019-01-02T13:32:54.078Z,103232.80
2019-01-02T13:36:32.467Z,103241.16
2019-01-02T13:40:06.111Z,103241.88
2019-01-02T13:43:47.160Z,103243.05
2019-01-02T13:47:20.405Z,103245.98
2019-01-02T13:51:06.864Z,103255.53
2019-01-02T13:54:10.669Z,103258.41
2019-01-02T13:57:14.494Z,103263.56
2019-01-02T14:00:18.398Z,103269.03
2019-01-02T14:03:22.203Z,103274.26
2019-01-02T14:06:25.993Z,103273.27
2019-01-02T14:09:29.826Z,103279.55
2019-01-02T14:12:33.620Z,103283.30
2019-01-02T14:15:37.426Z,103274.01
2019-01-02T14:18:41.250Z,103296.94
2019-01-02T14:21:45.072Z,103290.09
2019-01-02T14:24:48.886Z,103288.34
2019-01-02T14:27:52.687Z,103292.80
2019-01-02T14:30:56.498Z,103293.88
2019-01-02T14:34:00.292Z,103297.08
2019-01-02T14:37:04.126Z,103302.81
2019-01-02T14:40:08.099Z,103304.97
2019-01-02T14:43:11.897Z,103311.20
2019-01-02T14:46:15.792Z,103310.05
2019-01-02T14:49:19.596Z,103309.83
2019-01-02T14:52:23.403Z,103316.45
2019-01-02T14:55:27.279Z,103315.63
2019-01-02T14:58:31.087Z,103325.10
2019-01-02T15:01:34.892Z,103321.59
2019-01-02T15:04:38.711Z,103324.76
2019-01-02T15:07:42.512Z,103324.64
2019-01-02T15:10:46.342Z,103325.00
2019-01-02T15:13:50.156Z,103326.52
2019-01-02T15:16:53.972Z,103332.55
2019-01-02T15:19:57.756Z,103341.50
2019-01-02T15:23:01.563Z,103337.52
2019-01-02T15:26:05.443Z,103336.13
2019-01-02T15:29:09.271Z,103339.16
2019-01-02T15:32:13.062Z,103344.01
2019-01-02T15:35:16.892Z,103349.60
2019-01-02T15:38:20.693Z,103345.08
2019-01-02T15:41:24.517Z,103342.38
2019-01-02T15:44:28.376Z,103344.13
2019-01-02T15:47:32.190Z,103345.46
2019-01-02T15:50:36.058Z,103345.73
2019-01-02T15:53:39.853Z,103345.03
2019-01-02T15:56:43.721Z,103348.73
2019-01-02T15:59:48.351Z,103347.78
2019-01-02T16:02:52.159Z,103354.08
2019-01-02T16:05:55.960Z,103356.76
2019-01-02T16:08:59.784Z,103356.08
2019-01-02T16:12:03.711Z,103357.49
2019-01-02T16:15:08.672Z,103367.20
2019-01-02T16:18:12.464Z,103366.11
2019-01-02T16:21:16.285Z,103374.24
2019-01-02T16:24:20.094Z,103378.31
2019-01-02T16:27:24.437Z,103371.92
2019-01-02T16:30:28.242Z,103378.48
2019-01-02T16:33:32.082Z,103377.96
2019-01-02T16:36:35.853Z,103372.45
2019-01-02T16:39:39.684Z,103369.78
2019-01-02T16:42:43.748Z,103377.44
2019-01-02T16:45:47.553Z,103377.83
2019-01-02T16:48:51.401Z,103381.37
2019-01-02T16:51:55.198Z,103386.96
2019-01-02T16:54:58.999Z,103383.77
2019-01-02T16:58:02.811Z,103384.73
2019-01-02T17:01:06.626Z,103385.78
2019-01-02T17:04:10.512Z,103385.56
2019-01-02T17:07:14.320Z,103386.88
2019-01-02T17:10:18.195Z,103381.06
2019-01-02T17:13:22.053Z,103390.05
2019-01-02T17:16:25.915Z,103383.33
2019-01-02T17:19:29.740Z,103386.16
2019-01-02T17:22:33.652Z,103390.78
2019-01-02T17:25:37.460Z,103399.95
2019-01-02T17:28:41.627Z,103398.02
2019-01-02T17:31:45.429Z,103397.09
2019-01-02T17:34:49.243Z,103388.95
2019-01-02T17:37:53.056Z,103384.11
2019-01-02T17:40:56.874Z,103386.34
2019-01-02T17:44:00.680Z,103382.78
2019-01-02T17:47:04.630Z,103386.00
2019-01-02T17:50:10.068Z,103382.67
2019-01-02T17:53:13.909Z,103384.16
2019-01-02T17:56:17.700Z,103384.16
2019-01-02T17:59:21.504Z,103389.93
2019-01-02T18:02:25.387Z,103391.01
2019-01-02T18:05:29.318Z,103392.52
2019-01-02T18:08:33.161Z,103395.97
2019-01-02T18:11:36.992Z,103395.34
2019-01-02T18:14:40.811Z,103395.16
2019-01-02T18:17:44.620Z,103401.38
2019-01-02T18:20:48.447Z,103394.45
2019-01-02T18:23:52.276Z,103396.15
2019-01-02T18:26:56.055Z,103396.09
2019-01-02T18:29:59.989Z,103402.78
2019-01-02T18:33:03.791Z,103400.41
2019-01-02T18:36:07.673Z,103398.47
2019-01-02T18:39:11.507Z,103399.17
2019-01-02T18:42:15.345Z,103405.86
2019-01-02T18:45:19.159Z,103404.25
2019-01-02T18:48:22.991Z,103405.73
2019-01-02T18:51:26.814Z,103408.83
2019-01-02T18:54:30.612Z,103410.63
2019-01-02T18:57:34.417Z,103400.98
2019-01-02T19:00:38.255Z,103406.39
2019-01-02T19:03:42.047Z,103409.97
2019-01-02T19:06:45.875Z,103423.36
2019-01-02T19:09:49.679Z,103420.11
2019-01-02T19:12:53.503Z,103416.75
2019-01-02T19:15:57.302Z,103419.10
2019-01-02T19:19:01.108Z,103420.73
2019-01-02T19:22:04.948Z,103419.40
2019-01-02T19:25:08.924Z,103433.77
2019-01-02T19:28:12.710Z,103434.09
2019-01-02T19:31:16.498Z,103435.84
2019-01-02T19:34:20.328Z,103443.45
2019-01-02T19:37:24.134Z,103447.75
2019-01-02T19:40:28.020Z,103445.57
2019-01-02T19:43:31.808Z,103445.48
2019-01-02T19:46:35.625Z,103445.63
2019-01-02T19:49:39.486Z,103443.02
2019-01-02T19:52:43.280Z,103438.83
2019-01-02T19:55:47.117Z,103440.57
2019-01-02T19:58:50.916Z,103441.38
2019-01-02T20:01:54.741Z,103437.30
2019-01-02T20:04:58.546Z,103441.93
2019-01-02T20:08:02.403Z,103434.75
2019-01-02T20:11:06.283Z,103437.58
2019-01-02T20:14:10.091Z,103432.58
2019-01-02T20:17:13.893Z,103432.90
2019-01-02T20:20:17.690Z,103438.91
2019-01-02T20:23:21.492Z,103433.25
2019-01-02T20:26:31.396Z,103450.33
2019-01-02T20:29:30.904Z,103446.91
2019-01-02T20:32:34.727Z,103445.04
2019-01-02T20:35:38.567Z,103443.73
2019-01-02T20:38:42.368Z,103441.20
2019-01-02T20:41:46.205Z,103439.63
2019-01-02T20:44:50.033Z,103442.02
2019-01-02T20:47:53.837Z,103448.44
2019-01-02T20:50:57.631Z,103450.88
2019-01-02T20:54:01.468Z,103447.28
2019-01-02T20:57:05.254Z,103452.40
2019-01-02T21:00:11.534Z,103444.30
2019-01-02T21:03:15.359Z,103437.11
2019-01-02T21:06:19.170Z,103433.02
2019-01-02T21:09:23.000Z,103427.36
2019-01-02T21:12:26.808Z,103434.02
2019-01-02T21:15:30.628Z,103425.60
2019-01-02T21:18:34.421Z,103416.90
2019-01-02T21:21:38.273Z,103413.69
2019-01-02T21:24:42.081Z,103411.23
2019-01-02T21:27:45.981Z,103407.36
2019-01-02T21:30:49.775Z,103401.16
2019-01-02T21:33:53.796Z,103401.05
2019-01-02T21:36:57.654Z,103399.58
2019-01-02T21:40:01.502Z,103397.18
2019-01-02T21:43:05.304Z,103386.19
2019-01-02T21:46:09.112Z,103391.20
2019-01-02T21:49:12.912Z,103388.41
2019-01-02T21:52:16.739Z,103384.43
2019-01-02T21:55:20.534Z,103384.33
2019-01-02T21:58:24.354Z,103388.73
2019-01-02T22:01:28.148Z,103391.65
2019-01-02T22:04:31.986Z,103392.74
2019-01-02T22:07:35.795Z,103384.78
2019-01-02T22:10:39.606Z,103390.09
2019-01-02T22:13:43.417Z,103393.27
2019-01-02T22:16:47.245Z,103392.56
2019-01-02T22:19:51.075Z,103389.36
2019-01-02T22:22:54.862Z,103392.25
2019-01-02T22:25:58.690Z,103398.55
2019-01-02T22:29:02.521Z,103396.82
2019-01-02T22:32:06.385Z,103388.61
2019-01-02T22:35:10.184Z,103387.48
2019-01-02T22:38:14.052Z,103390.80
2019-01-02T22:41:17.872Z,103381.99
2019-01-02T22:44:21.756Z,103395.20
2019-01-02T22:47:25.584Z,103387.55
2019-01-02T22:50:29.408Z,103391.67
2019-01-02T22:53:33.219Z,103394.07
2019-01-02T22:56:37.035Z,103395.52
2019-01-02T22:59:40.847Z,103393.55
2019-01-02T23:03:04.627Z,103399.72
2019-01-02T23:06:33.625Z,103398.45
2019-01-02T23:09:50.952Z,103404.09
2019-01-02T23:13:12.756Z,103412.36
2019-01-02T23:16:35.312Z,103415.63
2019-01-02T23:20:07.601Z,103414.05
2019-01-02T23:23:29.081Z,103415.56
2019-01-02T23:26:54.707Z,103414.27
2019-01-02T23:30:14.008Z,103420.20
2019-01-02T23:33:44.636Z,103411.99
2019-01-02T23:37:06.425Z,103410.03
2019-01-02T23:40:32.557Z,103409.24
2019-01-02T23:43:58.466Z,103415.07
2019-01-02T23:47:30.359Z,103422.20
2019-01-02T23:51:08.564Z,103422.20
2019-01-02T23:54:30.374Z,103414.52
2019-01-02T23:57:51.797Z,103406.17
